sensor_id;sensor_type;location;lat;lon;timestamp;P1;durP1;ratioP1;P2;durP2;ratioP2
15256;SDS011;7731;50.720;6.912;2022-11-20T00:02:16;27.90;;;17.57;;
15256;SDS011;7731;50.720;6.912;2022-11-20T00:04:47;24.77;;;20.37;;
15256;SDS011;7731;50.720;6.912;2022-11-20T00:07:20;24.57;;;18.57;;
15256;SDS011;7731;50.720;6.912;2022-11-20T00:09:53;25.50;;;17.47;;
15256;SDS011;7731;50.720;6.912;2022-11-20T00:12:41;27.07;;;20.10;;
15256;SDS011;7731;50.720;6.912;2022-11-20T00:15:17;26.30;;;21.47;;
15256;SDS011;7731;50.720;6.912;2022-11-20T00:17:50;25.33;;;18.97;;
15256;SDS011;7731;50.720;6.912;2022-11-20T00:20:23;27.07;;;17.97;;
15256;SDS011;7731;50.720;6.912;2022-11-20T00:22:56;25.47;;;18.10;;
15256;SDS011;7731;50.720;6.912;2022-11-20T00:25:38;26.43;;;16.33;;
15256;SDS011;7731;50.720;6.912;2022-11-20T00:28:08;24.17;;;16.47;;
15256;SDS011;7731;50.720;6.912;2022-11-20T00:30:38;24.50;;;16.80;;
15256;SDS011;7731;50.720;6.912;2022-11-20T00:33:09;23.67;;;15.73;;
15256;SDS011;7731;50.720;6.912;2022-11-20T00:35:41;24.77;;;16.67;;
15256;SDS011;7731;50.720;6.912;2022-11-20T00:38:11;25.50;;;17.30;;
15256;SDS011;7731;50.720;6.912;2022-11-20T00:40:47;25.57;;;16.20;;
15256;SDS011;7731;50.720;6.912;2022-11-20T00:43:28;22.07;;;15.07;;
15256;SDS011;7731;50.720;6.912;2022-11-20T00:46:01;24.07;;;17.33;;
15256;SDS011;7731;50.720;6.912;2022-11-20T00:48:33;24.30;;;15.77;;
15256;SDS011;7731;50.720;6.912;2022-11-20T00:51:11;27.47;;;17.97;;
15256;SDS011;7731;50.720;6.912;2022-11-20T00:53:43;30.90;;;21.10;;
15256;SDS011;7731;50.720;6.912;2022-11-20T00:56:19;26.93;;;16.53;;
15256;SDS011;7731;50.720;6.912;2022-11-20T00:58:49;24.57;;;15.77;;
15256;SDS011;7731;50.720;6.912;2022-11-20T01:01:20;25.60;;;16.60;;
15256;SDS011;7731;50.720;6.912;2022-11-20T01:03:55;25.03;;;16.93;;
15256;SDS011;7731;50.720;6.912;2022-11-20T01:06:29;25.30;;;17.27;;
15256;SDS011;7731;50.720;6.912;2022-11-20T01:09:03;27.63;;;18.17;;
15256;SDS011;7731;50.720;6.912;2022-11-20T01:11:42;26.40;;;18.43;;
15256;SDS011;7731;50.720;6.912;2022-11-20T01:14:14;25.47;;;17.13;;
15256;SDS011;7731;50.720;6.912;2022-11-20T01:16:50;26.13;;;18.30;;
15256;SDS011;7731;50.720;6.912;2022-11-20T01:19:26;26.80;;;19.87;;
15256;SDS011;7731;50.720;6.912;2022-11-20T01:21:56;27.83;;;21.70;;
15256;SDS011;7731;50.720;6.912;2022-11-20T01:24:29;28.30;;;22.53;;
15256;SDS011;7731;50.720;6.912;2022-11-20T01:27:02;29.87;;;21.80;;
15256;SDS011;7731;50.720;6.912;2022-11-20T01:29:32;29.43;;;23.07;;
15256;SDS011;7731;50.720;6.912;2022-11-20T01:32:05;27.03;;;22.70;;
15256;SDS011;7731;50.720;6.912;2022-11-20T01:34:42;28.30;;;22.50;;
15256;SDS011;7731;50.720;6.912;2022-11-20T01:37:22;28.80;;;20.33;;
15256;SDS011;7731;50.720;6.912;2022-11-20T01:39:52;28.73;;;20.13;;
15256;SDS011;7731;50.720;6.912;2022-11-20T01:42:25;39.80;;;34.77;;
15256;SDS011;7731;50.720;6.912;2022-11-20T01:48:22;37.93;;;30.83;;
15256;SDS011;7731;50.720;6.912;2022-11-20T01:50:56;31.73;;;25.90;;
15256;SDS011;7731;50.720;6.912;2022-11-20T01:53:29;27.97;;;21.57;;
15256;SDS011;7731;50.720;6.912;2022-11-20T01:56:05;28.40;;;22.10;;
15256;SDS011;7731;50.720;6.912;2022-11-20T01:58:49;27.93;;;21.23;;
15256;SDS011;7731;50.720;6.912;2022-11-20T02:01:25;28.43;;;20.83;;
15256;SDS011;7731;50.720;6.912;2022-11-20T02:03:55;26.37;;;20.07;;
15256;SDS011;7731;50.720;6.912;2022-11-20T02:06:28;24.83;;;17.87;;
15256;SDS011;7731;50.720;6.912;2022-11-20T02:09:05;27.90;;;17.53;;
15256;SDS011;7731;50.720;6.912;2022-11-20T02:11:35;29.30;;;19.13;;
15256;SDS011;7731;50.720;6.912;2022-11-20T02:14:08;26.90;;;17.43;;
15256;SDS011;7731;50.720;6.912;2022-11-20T02:16:37;28.90;;;18.10;;
15256;SDS011;7731;50.720;6.912;2022-11-20T02:19:17;27.80;;;18.50;;
15256;SDS011;7731;50.720;6.912;2022-11-20T02:21:58;30.97;;;22.50;;
15256;SDS011;7731;50.720;6.912;2022-11-20T02:24:37;32.67;;;20.03;;
15256;SDS011;7731;50.720;6.912;2022-11-20T02:27:09;29.90;;;20.50;;
15256;SDS011;7731;50.720;6.912;2022-11-20T02:29:42;31.50;;;21.07;;
15256;SDS011;7731;50.720;6.912;2022-11-20T02:32:19;26.67;;;18.00;;
15256;SDS011;7731;50.720;6.912;2022-11-20T02:34:51;27.77;;;17.17;;
15256;SDS011;7731;50.720;6.912;2022-11-20T02:37:21;26.50;;;16.57;;
15256;SDS011;7731;50.720;6.912;2022-11-20T02:39:59;25.47;;;17.07;;
15256;SDS011;7731;50.720;6.912;2022-11-20T02:42:32;25.27;;;17.10;;
15256;SDS011;7731;50.720;6.912;2022-11-20T02:45:02;27.43;;;17.67;;
15256;SDS011;7731;50.720;6.912;2022-11-20T02:47:34;29.27;;;17.80;;
15256;SDS011;7731;50.720;6.912;2022-11-20T02:50:11;30.93;;;17.67;;
15256;SDS011;7731;50.720;6.912;2022-11-20T02:52:41;26.23;;;17.23;;
15256;SDS011;7731;50.720;6.912;2022-11-20T02:55:16;27.57;;;17.77;;
15256;SDS011;7731;50.720;6.912;2022-11-20T02:57:47;29.33;;;18.80;;
15256;SDS011;7731;50.720;6.912;2022-11-20T03:00:19;30.77;;;19.43;;
15256;SDS011;7731;50.720;6.912;2022-11-20T03:02:49;29.77;;;20.93;;
15256;SDS011;7731;50.720;6.912;2022-11-20T03:05:20;30.50;;;20.70;;
15256;SDS011;7731;50.720;6.912;2022-11-20T03:07:50;31.67;;;22.03;;
15256;SDS011;7731;50.720;6.912;2022-11-20T03:10:25;32.33;;;22.20;;
15256;SDS011;7731;50.720;6.912;2022-11-20T03:12:55;30.57;;;22.40;;
15256;SDS011;7731;50.720;6.912;2022-11-20T03:15:25;31.37;;;21.70;;
15256;SDS011;7731;50.720;6.912;2022-11-20T03:18:04;33.43;;;23.40;;
15256;SDS011;7731;50.720;6.912;2022-11-20T03:20:39;32.13;;;23.90;;
15256;SDS011;7731;50.720;6.912;2022-11-20T03:25:43;30.93;;;20.37;;
15256;SDS011;7731;50.720;6.912;2022-11-20T03:28:13;33.10;;;22.17;;
15256;SDS011;7731;50.720;6.912;2022-11-20T03:30:43;29.23;;;21.13;;
15256;SDS011;7731;50.720;6.912;2022-11-20T03:33:14;30.20;;;22.60;;
15256;SDS011;7731;50.720;6.912;2022-11-20T03:35:46;31.47;;;21.23;;
15256;SDS011;7731;50.720;6.912;2022-11-20T03:38:16;29.67;;;21.73;;
15256;SDS011;7731;50.720;6.912;2022-11-20T03:41:00;29.77;;;20.67;;
15256;SDS011;7731;50.720;6.912;2022-11-20T03:43:31;27.13;;;20.60;;
15256;SDS011;7731;50.720;6.912;2022-11-20T03:46:02;29.73;;;21.60;;
15256;SDS011;7731;50.720;6.912;2022-11-20T03:48:36;32.80;;;22.10;;
15256;SDS011;7731;50.720;6.912;2022-11-20T03:51:14;30.03;;;19.73;;
15256;SDS011;7731;50.720;6.912;2022-11-20T03:53:47;28.33;;;17.90;;
15256;SDS011;7731;50.720;6.912;2022-11-20T03:56:23;30.60;;;18.80;;
15256;SDS011;7731;50.720;6.912;2022-11-20T03:58:55;30.50;;;18.40;;
15256;SDS011;7731;50.720;6.912;2022-11-20T04:01:26;31.23;;;18.57;;
15256;SDS011;7731;50.720;6.912;2022-11-20T04:03:59;30.73;;;19.30;;
15256;SDS011;7731;50.720;6.912;2022-11-20T04:06:32;30.77;;;18.00;;
15256;SDS011;7731;50.720;6.912;2022-11-20T04:09:11;29.33;;;18.20;;
15256;SDS011;7731;50.720;6.912;2022-11-20T04:11:52;33.03;;;19.07;;
15256;SDS011;7731;50.720;6.912;2022-11-20T04:14:22;30.10;;;18.53;;
15256;SDS011;7731;50.720;6.912;2022-11-20T04:16:53;32.10;;;19.27;;
15256;SDS011;7731;50.720;6.912;2022-11-20T04:19:23;33.93;;;18.97;;
15256;SDS011;7731;50.720;6.912;2022-11-20T04:21:53;32.20;;;19.17;;
15256;SDS011;7731;50.720;6.912;2022-11-20T04:24:26;30.27;;;19.37;;
15256;SDS011;7731;50.720;6.912;2022-11-20T04:27:02;36.30;;;19.87;;
15256;SDS011;7731;50.720;6.912;2022-11-20T04:29:37;32.03;;;22.03;;
15256;SDS011;7731;50.720;6.912;2022-11-20T04:32:13;30.33;;;18.10;;
15256;SDS011;7731;50.720;6.912;2022-11-20T04:34:46;30.90;;;18.67;;
15256;SDS011;7731;50.720;6.912;2022-11-20T04:37:17;35.30;;;19.00;;
15256;SDS011;7731;50.720;6.912;2022-11-20T04:39:48;33.27;;;19.20;;
15256;SDS011;7731;50.720;6.912;2022-11-20T04:42:26;33.20;;;18.53;;
15256;SDS011;7731;50.720;6.912;2022-11-20T04:45:06;31.27;;;21.30;;
15256;SDS011;7731;50.720;6.912;2022-11-20T04:47:39;31.63;;;18.23;;
15256;SDS011;7731;50.720;6.912;2022-11-20T04:50:09;32.07;;;20.33;;
15256;SDS011;7731;50.720;6.912;2022-11-20T04:52:40;31.77;;;18.10;;
15256;SDS011;7731;50.720;6.912;2022-11-20T04:55:10;34.37;;;19.83;;
15256;SDS011;7731;50.720;6.912;2022-11-20T04:57:43;33.37;;;19.60;;
15256;SDS011;7731;50.720;6.912;2022-11-20T05:00:14;33.73;;;19.47;;
15256;SDS011;7731;50.720;6.912;2022-11-20T05:02:51;32.57;;;22.67;;
15256;SDS011;7731;50.720;6.912;2022-11-20T05:05:21;32.40;;;21.60;;
15256;SDS011;7731;50.720;6.912;2022-11-20T05:07:52;33.70;;;21.97;;
15256;SDS011;7731;50.720;6.912;2022-11-20T05:10:25;30.87;;;17.60;;
15256;SDS011;7731;50.720;6.912;2022-11-20T05:12:59;28.67;;;17.57;;
15256;SDS011;7731;50.720;6.912;2022-11-20T05:15:29;31.33;;;18.90;;
15256;SDS011;7731;50.720;6.912;2022-11-20T05:18:02;33.00;;;19.73;;
15256;SDS011;7731;50.720;6.912;2022-11-20T05:20:33;35.33;;;19.27;;
15256;SDS011;7731;50.720;6.912;2022-11-20T05:23:05;35.17;;;21.00;;
15256;SDS011;7731;50.720;6.912;2022-11-20T05:25:35;38.13;;;24.43;;
15256;SDS011;7731;50.720;6.912;2022-11-20T05:28:09;40.03;;;24.40;;
15256;SDS011;7731;50.720;6.912;2022-11-20T05:30:40;39.50;;;25.67;;
15256;SDS011;7731;50.720;6.912;2022-11-20T05:33:13;37.23;;;24.03;;
15256;SDS011;7731;50.720;6.912;2022-11-20T05:35:44;37.07;;;25.33;;
15256;SDS011;7731;50.720;6.912;2022-11-20T05:38:14;33.93;;;23.60;;
15256;SDS011;7731;50.720;6.912;2022-11-20T05:40:45;39.07;;;24.07;;
15256;SDS011;7731;50.720;6.912;2022-11-20T05:43:20;38.90;;;23.30;;
15256;SDS011;7731;50.720;6.912;2022-11-20T05:45:53;37.67;;;23.90;;
15256;SDS011;7731;50.720;6.912;2022-11-20T05:48:23;38.03;;;24.57;;
15256;SDS011;7731;50.720;6.912;2022-11-20T05:50:55;39.63;;;24.90;;
15256;SDS011;7731;50.720;6.912;2022-11-20T05:53:27;34.67;;;22.43;;
15256;SDS011;7731;50.720;6.912;2022-11-20T05:55:58;31.83;;;18.73;;
15256;SDS011;7731;50.720;6.912;2022-11-20T05:58:32;33.60;;;19.00;;
15256;SDS011;7731;50.720;6.912;2022-11-20T06:01:03;36.43;;;22.57;;
15256;SDS011;7731;50.720;6.912;2022-11-20T06:03:46;34.80;;;24.03;;
15256;SDS011;7731;50.720;6.912;2022-11-20T06:06:17;33.07;;;24.47;;
15256;SDS011;7731;50.720;6.912;2022-11-20T06:08:52;32.70;;;23.73;;
15256;SDS011;7731;50.720;6.912;2022-11-20T06:11:25;34.80;;;21.97;;
15256;SDS011;7731;50.720;6.912;2022-11-20T06:13:57;33.20;;;21.63;;
15256;SDS011;7731;50.720;6.912;2022-11-20T06:16:28;32.20;;;18.93;;
15256;SDS011;7731;50.720;6.912;2022-11-20T06:18:58;32.17;;;20.43;;
15256;SDS011;7731;50.720;6.912;2022-11-20T06:21:28;27.80;;;17.93;;
15256;SDS011;7731;50.720;6.912;2022-11-20T06:24:01;28.70;;;18.90;;
15256;SDS011;7731;50.720;6.912;2022-11-20T06:26:37;29.03;;;18.37;;
15256;SDS011;7731;50.720;6.912;2022-11-20T06:29:10;31.53;;;20.37;;
15256;SDS011;7731;50.720;6.912;2022-11-20T06:31:40;27.43;;;17.43;;
15256;SDS011;7731;50.720;6.912;2022-11-20T06:34:16;25.50;;;16.93;;
15256;SDS011;7731;50.720;6.912;2022-11-20T06:36:47;26.20;;;17.13;;
15256;SDS011;7731;50.720;6.912;2022-11-20T06:39:17;30.50;;;19.87;;
15256;SDS011;7731;50.720;6.912;2022-11-20T06:41:47;31.03;;;18.43;;
15256;SDS011;7731;50.720;6.912;2022-11-20T06:44:27;28.87;;;17.73;;
15256;SDS011;7731;50.720;6.912;2022-11-20T06:47:00;25.30;;;16.43;;
15256;SDS011;7731;50.720;6.912;2022-11-20T06:49:30;31.23;;;17.90;;
15256;SDS011;7731;50.720;6.912;2022-11-20T06:52:04;29.83;;;16.97;;
15256;SDS011;7731;50.720;6.912;2022-11-20T06:54:37;28.17;;;17.13;;
15256;SDS011;7731;50.720;6.912;2022-11-20T06:57:07;28.70;;;17.07;;
15256;SDS011;7731;50.720;6.912;2022-11-20T06:59:40;28.53;;;16.60;;
15256;SDS011;7731;50.720;6.912;2022-11-20T07:02:10;28.73;;;19.90;;
15256;SDS011;7731;50.720;6.912;2022-11-20T07:04:45;27.17;;;18.93;;
15256;SDS011;7731;50.720;6.912;2022-11-20T07:07:19;27.17;;;16.83;;
15256;SDS011;7731;50.720;6.912;2022-11-20T07:09:49;26.30;;;16.40;;
15256;SDS011;7731;50.720;6.912;2022-11-20T07:12:22;27.53;;;17.50;;
15256;SDS011;7731;50.720;6.912;2022-11-20T07:14:57;28.20;;;19.40;;
15256;SDS011;7731;50.720;6.912;2022-11-20T07:17:27;28.37;;;21.43;;
15256;SDS011;7731;50.720;6.912;2022-11-20T07:19:57;29.67;;;20.43;;
15256;SDS011;7731;50.720;6.912;2022-11-20T07:22:28;25.27;;;18.20;;
15256;SDS011;7731;50.720;6.912;2022-11-20T07:25:04;28.53;;;21.07;;
15256;SDS011;7731;50.720;6.912;2022-11-20T07:27:44;26.30;;;19.37;;
15256;SDS011;7731;50.720;6.912;2022-11-20T07:30:25;28.10;;;20.00;;
15256;SDS011;7731;50.720;6.912;2022-11-20T07:32:59;29.00;;;20.47;;
15256;SDS011;7731;50.720;6.912;2022-11-20T07:35:29;30.00;;;21.00;;
15256;SDS011;7731;50.720;6.912;2022-11-20T07:38:07;27.80;;;19.70;;
15256;SDS011;7731;50.720;6.912;2022-11-20T07:40:40;29.23;;;19.47;;
15256;SDS011;7731;50.720;6.912;2022-11-20T07:43:10;24.80;;;16.20;;
15256;SDS011;7731;50.720;6.912;2022-11-20T07:45:43;25.47;;;18.40;;
15256;SDS011;7731;50.720;6.912;2022-11-20T07:48:16;23.77;;;16.17;;
15256;SDS011;7731;50.720;6.912;2022-11-20T07:50:47;25.43;;;16.33;;
15256;SDS011;7731;50.720;6.912;2022-11-20T07:53:18;27.70;;;19.60;;
15256;SDS011;7731;50.720;6.912;2022-11-20T07:55:52;25.07;;;16.50;;
15256;SDS011;7731;50.720;6.912;2022-11-20T07:58:32;26.93;;;17.10;;
15256;SDS011;7731;50.720;6.912;2022-11-20T08:01:08;26.40;;;19.60;;
15256;SDS011;7731;50.720;6.912;2022-11-20T08:03:38;28.93;;;20.70;;
15256;SDS011;7731;50.720;6.912;2022-11-20T08:06:08;28.67;;;19.67;;
15256;SDS011;7731;50.720;6.912;2022-11-20T08:08:41;26.60;;;18.00;;
15256;SDS011;7731;50.720;6.912;2022-11-20T08:11:11;26.80;;;16.37;;
15256;SDS011;7731;50.720;6.912;2022-11-20T08:13:54;25.93;;;17.50;;
15256;SDS011;7731;50.720;6.912;2022-11-20T08:16:39;23.70;;;16.67;;
15256;SDS011;7731;50.720;6.912;2022-11-20T08:19:12;25.67;;;17.23;;
15256;SDS011;7731;50.720;6.912;2022-11-20T08:21:46;28.43;;;17.10;;
15256;SDS011;7731;50.720;6.912;2022-11-20T08:24:17;25.57;;;18.47;;
15256;SDS011;7731;50.720;6.912;2022-11-20T08:26:47;28.87;;;19.17;;
15256;SDS011;7731;50.720;6.912;2022-11-20T08:29:22;28.87;;;18.30;;
15256;SDS011;7731;50.720;6.912;2022-11-20T08:31:58;27.27;;;17.00;;
15256;SDS011;7731;50.720;6.912;2022-11-20T08:34:31;30.33;;;18.30;;
15256;SDS011;7731;50.720;6.912;2022-11-20T08:37:08;27.10;;;16.30;;
15256;SDS011;7731;50.720;6.912;2022-11-20T08:39:38;28.00;;;18.90;;
15256;SDS011;7731;50.720;6.912;2022-11-20T08:42:09;27.57;;;16.97;;
15256;SDS011;7731;50.720;6.912;2022-11-20T08:44:43;25.67;;;17.30;;
15256;SDS011;7731;50.720;6.912;2022-11-20T08:47:18;29.97;;;18.43;;
15256;SDS011;7731;50.720;6.912;2022-11-20T08:49:48;26.73;;;17.77;;
15256;SDS011;7731;50.720;6.912;2022-11-20T08:52:18;25.40;;;16.67;;
15256;SDS011;7731;50.720;6.912;2022-11-20T08:54:48;28.70;;;17.97;;
15256;SDS011;7731;50.720;6.912;2022-11-20T08:57:19;25.03;;;16.13;;
15256;SDS011;7731;50.720;6.912;2022-11-20T08:59:50;27.63;;;16.73;;
15256;SDS011;7731;50.720;6.912;2022-11-20T09:02:38;29.17;;;17.97;;
15256;SDS011;7731;50.720;6.912;2022-11-20T09:05:08;27.87;;;17.30;;
15256;SDS011;7731;50.720;6.912;2022-11-20T09:07:50;27.63;;;17.70;;
15256;SDS011;7731;50.720;6.912;2022-11-20T09:10:20;26.13;;;17.70;;
15256;SDS011;7731;50.720;6.912;2022-11-20T09:12:51;26.83;;;17.60;;
15256;SDS011;7731;50.720;6.912;2022-11-20T09:15:33;24.50;;;15.90;;
15256;SDS011;7731;50.720;6.912;2022-11-20T09:18:06;27.07;;;16.80;;
15256;SDS011;7731;50.720;6.912;2022-11-20T09:20:37;28.57;;;17.57;;
15256;SDS011;7731;50.720;6.912;2022-11-20T09:23:07;29.17;;;18.03;;
15256;SDS011;7731;50.720;6.912;2022-11-20T09:25:38;24.53;;;15.97;;
15256;SDS011;7731;50.720;6.912;2022-11-20T09:28:08;25.50;;;17.43;;
15256;SDS011;7731;50.720;6.912;2022-11-20T09:30:43;26.97;;;16.60;;
15256;SDS011;7731;50.720;6.912;2022-11-20T09:33:16;25.37;;;16.27;;
15256;SDS011;7731;50.720;6.912;2022-11-20T09:35:46;22.40;;;15.33;;
15256;SDS011;7731;50.720;6.912;2022-11-20T09:38:23;26.67;;;16.33;;
15256;SDS011;7731;50.720;6.912;2022-11-20T09:41:01;24.83;;;15.70;;
15256;SDS011;7731;50.720;6.912;2022-11-20T09:43:40;26.97;;;16.57;;
15256;SDS011;7731;50.720;6.912;2022-11-20T09:46:28;24.60;;;16.17;;
15256;SDS011;7731;50.720;6.912;2022-11-20T09:49:22;21.40;;;14.83;;
15256;SDS011;7731;50.720;6.912;2022-11-20T09:52:05;23.50;;;13.83;;
15256;SDS011;7731;50.720;6.912;2022-11-20T09:54:51;23.13;;;14.53;;
15256;SDS011;7731;50.720;6.912;2022-11-20T09:57:25;21.07;;;13.97;;
15256;SDS011;7731;50.720;6.912;2022-11-20T10:00:05;21.03;;;13.70;;
15256;SDS011;7731;50.720;6.912;2022-11-20T10:02:42;21.55;;;14.45;;
15256;SDS011;7731;50.720;6.912;2022-11-20T10:05:24;20.90;;;14.50;;
15256;SDS011;7731;50.720;6.912;2022-11-20T10:08:02;21.70;;;15.07;;
15256;SDS011;7731;50.720;6.912;2022-11-20T10:10:46;20.00;;;14.40;;
15256;SDS011;7731;50.720;6.912;2022-11-20T10:13:28;23.48;;;14.75;;
15256;SDS011;7731;50.720;6.912;2022-11-20T10:16:15;23.37;;;14.73;;
15256;SDS011;7731;50.720;6.912;2022-11-20T10:19:17;25.07;;;16.50;;
15256;SDS011;7731;50.720;6.912;2022-11-20T10:22:17;22.30;;;14.80;;
15256;SDS011;7731;50.720;6.912;2022-11-20T10:25:11;22.77;;;13.67;;
15256;SDS011;7731;50.720;6.912;2022-11-20T10:28:03;26.43;;;14.83;;
15256;SDS011;7731;50.720;6.912;2022-11-20T10:30:54;21.33;;;14.77;;
15256;SDS011;7731;50.720;6.912;2022-11-20T10:33:39;26.93;;;15.37;;
15256;SDS011;7731;50.720;6.912;2022-11-20T10:36:38;22.87;;;14.37;;
15256;SDS011;7731;50.720;6.912;2022-11-20T10:39:20;23.27;;;14.97;;
15256;SDS011;7731;50.720;6.912;2022-11-20T10:42:00;24.30;;;15.50;;
15256;SDS011;7731;50.720;6.912;2022-11-20T10:44:42;26.67;;;14.50;;
15256;SDS011;7731;50.720;6.912;2022-11-20T10:47:33;25.77;;;15.13;;
15256;SDS011;7731;50.720;6.912;2022-11-20T10:50:03;21.97;;;14.13;;
15256;SDS011;7731;50.720;6.912;2022-11-20T10:52:55;23.23;;;14.27;;
15256;SDS011;7731;50.720;6.912;2022-11-20T10:55:43;21.10;;;13.40;;
15256;SDS011;7731;50.720;6.912;2022-11-20T10:58:25;22.57;;;15.67;;
15256;SDS011;7731;50.720;6.912;2022-11-20T11:01:13;21.47;;;13.87;;
15256;SDS011;7731;50.720;6.912;2022-11-20T11:03:49;23.87;;;14.63;;
15256;SDS011;7731;50.720;6.912;2022-11-20T11:06:23;21.07;;;13.83;;
15256;SDS011;7731;50.720;6.912;2022-11-20T11:09:04;23.83;;;14.83;;
15256;SDS011;7731;50.720;6.912;2022-11-20T11:11:52;24.90;;;15.87;;
15256;SDS011;7731;50.720;6.912;2022-11-20T11:14:40;23.67;;;15.43;;
15256;SDS011;7731;50.720;6.912;2022-11-20T11:17:20;23.60;;;14.37;;
15256;SDS011;7731;50.720;6.912;2022-11-20T11:20:00;23.20;;;13.90;;
15256;SDS011;7731;50.720;6.912;2022-11-20T11:22:44;24.17;;;15.17;;
15256;SDS011;7731;50.720;6.912;2022-11-20T11:25:20;25.73;;;14.90;;
15256;SDS011;7731;50.720;6.912;2022-11-20T11:28:03;23.80;;;14.93;;
15256;SDS011;7731;50.720;6.912;2022-11-20T11:30:48;22.57;;;13.97;;
15256;SDS011;7731;50.720;6.912;2022-11-20T11:33:19;23.00;;;14.97;;
15256;SDS011;7731;50.720;6.912;2022-11-20T11:35:52;23.73;;;15.17;;
15256;SDS011;7731;50.720;6.912;2022-11-20T11:38:29;22.23;;;13.80;;
15256;SDS011;7731;50.720;6.912;2022-11-20T11:41:20;22.93;;;13.23;;
15256;SDS011;7731;50.720;6.912;2022-11-20T11:43:57;20.93;;;13.67;;
15256;SDS011;7731;50.720;6.912;2022-11-20T11:46:49;24.50;;;15.10;;
15256;SDS011;7731;50.720;6.912;2022-11-20T11:49:24;25.23;;;15.03;;
15256;SDS011;7731;50.720;6.912;2022-11-20T11:52:02;23.17;;;14.47;;
15256;SDS011;7731;50.720;6.912;2022-11-20T11:54:43;23.03;;;14.10;;
15256;SDS011;7731;50.720;6.912;2022-11-20T11:57:28;23.83;;;13.70;;
15256;SDS011;7731;50.720;6.912;2022-11-20T12:00:20;24.00;;;15.57;;
15256;SDS011;7731;50.720;6.912;2022-11-20T12:02:57;24.90;;;16.87;;
15256;SDS011;7731;50.720;6.912;2022-11-20T12:05:40;20.60;;;13.67;;
15256;SDS011;7731;50.720;6.912;2022-11-20T12:08:17;23.80;;;15.13;;
15256;SDS011;7731;50.720;6.912;2022-11-20T12:10:55;23.70;;;14.07;;
15256;SDS011;7731;50.720;6.912;2022-11-20T12:13:44;22.80;;;13.43;;
15256;SDS011;7731;50.720;6.912;2022-11-20T12:16:25;21.83;;;13.90;;
15256;SDS011;7731;50.720;6.912;2022-11-20T12:18:58;22.00;;;13.57;;
15256;SDS011;7731;50.720;6.912;2022-11-20T12:21:31;18.27;;;11.87;;
15256;SDS011;7731;50.720;6.912;2022-11-20T12:24:34;20.30;;;13.27;;
15256;SDS011;7731;50.720;6.912;2022-11-20T12:27:27;18.43;;;11.10;;
15256;SDS011;7731;50.720;6.912;2022-11-20T12:30:16;19.47;;;11.93;;
15256;SDS011;7731;50.720;6.912;2022-11-20T12:32:55;20.30;;;13.30;;
15256;SDS011;7731;50.720;6.912;2022-11-20T12:35:50;19.97;;;13.30;;
15256;SDS011;7731;50.720;6.912;2022-11-20T12:42:00;22.73;;;14.23;;
15256;SDS011;7731;50.720;6.912;2022-11-20T12:45:22;25.13;;;13.97;;
15256;SDS011;7731;50.720;6.912;2022-11-20T12:48:30;18.70;;;11.73;;
15256;SDS011;7731;50.720;6.912;2022-11-20T12:57:44;19.37;;;13.17;;
15256;SDS011;7731;50.720;6.912;2022-11-20T13:00:22;28.60;;;16.87;;
15256;SDS011;7731;50.720;6.912;2022-11-20T13:06:13;20.47;;;12.33;;
15256;SDS011;7731;50.720;6.912;2022-11-20T13:08:48;22.30;;;15.13;;
15256;SDS011;7731;50.720;6.912;2022-11-20T13:11:24;23.67;;;14.57;;
15256;SDS011;7731;50.720;6.912;2022-11-20T13:14:19;21.57;;;13.97;;
15256;SDS011;7731;50.720;6.912;2022-11-20T13:17:19;22.40;;;15.63;;
15256;SDS011;7731;50.720;6.912;2022-11-20T13:20:02;20.47;;;14.07;;
15256;SDS011;7731;50.720;6.912;2022-11-20T13:22:52;23.40;;;14.40;;
15256;SDS011;7731;50.720;6.912;2022-11-20T13:25:25;18.03;;;12.37;;
15256;SDS011;7731;50.720;6.912;2022-11-20T13:27:58;18.17;;;12.27;;
15256;SDS011;7731;50.720;6.912;2022-11-20T13:30:31;21.40;;;13.90;;
15256;SDS011;7731;50.720;6.912;2022-11-20T13:33:05;17.53;;;12.50;;
15256;SDS011;7731;50.720;6.912;2022-11-20T13:35:54;20.87;;;12.90;;
15256;SDS011;7731;50.720;6.912;2022-11-20T13:38:26;20.73;;;12.70;;
15256;SDS011;7731;50.720;6.912;2022-11-20T13:41:09;21.17;;;13.77;;
15256;SDS011;7731;50.720;6.912;2022-11-20T13:43:52;21.67;;;13.47;;
15256;SDS011;7731;50.720;6.912;2022-11-20T13:46:35;22.83;;;13.67;;
15256;SDS011;7731;50.720;6.912;2022-11-20T13:49:18;21.57;;;13.33;;
15256;SDS011;7731;50.720;6.912;2022-11-20T13:52:01;23.30;;;16.33;;
15256;SDS011;7731;50.720;6.912;2022-11-20T13:55:06;21.73;;;13.60;;
15256;SDS011;7731;50.720;6.912;2022-11-20T13:57:57;23.67;;;13.53;;
15256;SDS011;7731;50.720;6.912;2022-11-20T14:00:44;20.77;;;14.23;;
15256;SDS011;7731;50.720;6.912;2022-11-20T14:03:22;18.97;;;13.00;;
15256;SDS011;7731;50.720;6.912;2022-11-20T14:06:19;21.10;;;13.53;;
15256;SDS011;7731;50.720;6.912;2022-11-20T14:09:01;19.03;;;12.63;;
15256;SDS011;7731;50.720;6.912;2022-11-20T14:11:31;19.90;;;12.30;;
15256;SDS011;7731;50.720;6.912;2022-11-20T14:14:02;20.43;;;12.57;;
15256;SDS011;7731;50.720;6.912;2022-11-20T14:16:45;17.87;;;11.90;;
15256;SDS011;7731;50.720;6.912;2022-11-20T14:19:26;19.83;;;12.83;;
15256;SDS011;7731;50.720;6.912;2022-11-20T14:22:07;18.13;;;11.40;;
15256;SDS011;7731;50.720;6.912;2022-11-20T14:25:00;13.60;;;10.20;;
15256;SDS011;7731;50.720;6.912;2022-11-20T14:27:49;15.87;;;11.10;;
15256;SDS011;7731;50.720;6.912;2022-11-20T14:30:23;15.57;;;11.07;;
15256;SDS011;7731;50.720;6.912;2022-11-20T14:33:01;17.70;;;11.60;;
15256;SDS011;7731;50.720;6.912;2022-11-20T14:35:37;19.20;;;11.60;;
15256;SDS011;7731;50.720;6.912;2022-11-20T14:38:15;15.73;;;10.87;;
15256;SDS011;7731;50.720;6.912;2022-11-20T14:41:05;15.87;;;11.63;;
15256;SDS011;7731;50.720;6.912;2022-11-20T14:43:38;15.90;;;10.30;;
15256;SDS011;7731;50.720;6.912;2022-11-20T14:46:14;16.53;;;9.83;;
15256;SDS011;7731;50.720;6.912;2022-11-20T14:48:45;16.97;;;11.17;;
15256;SDS011;7731;50.720;6.912;2022-11-20T14:51:28;18.97;;;10.97;;
15256;SDS011;7731;50.720;6.912;2022-11-20T14:54:12;10.83;;;6.83;;
15256;SDS011;7731;50.720;6.912;2022-11-20T14:56:55;7.10;;;4.37;;
15256;SDS011;7731;50.720;6.912;2022-11-20T14:59:28;4.87;;;2.80;;
15256;SDS011;7731;50.720;6.912;2022-11-20T15:02:01;4.23;;;2.20;;
15256;SDS011;7731;50.720;6.912;2022-11-20T15:04:43;2.87;;;2.10;;
15256;SDS011;7731;50.720;6.912;2022-11-20T15:07:24;2.87;;;1.80;;
15256;SDS011;7731;50.720;6.912;2022-11-20T15:10:07;3.57;;;1.60;;
15256;SDS011;7731;50.720;6.912;2022-11-20T15:13:05;2.87;;;1.43;;
15256;SDS011;7731;50.720;6.912;2022-11-20T15:15:43;4.23;;;1.60;;
15256;SDS011;7731;50.720;6.912;2022-11-20T15:18:17;3.53;;;1.50;;
15256;SDS011;7731;50.720;6.912;2022-11-20T15:20:50;3.67;;;1.50;;
15256;SDS011;7731;50.720;6.912;2022-11-20T15:23:25;3.90;;;1.77;;
15256;SDS011;7731;50.720;6.912;2022-11-20T15:25:59;3.07;;;2.00;;
15256;SDS011;7731;50.720;6.912;2022-11-20T15:28:39;4.17;;;2.60;;
15256;SDS011;7731;50.720;6.912;2022-11-20T15:31:14;4.57;;;2.27;;
15256;SDS011;7731;50.720;6.912;2022-11-20T15:33:47;5.97;;;3.50;;
15256;SDS011;7731;50.720;6.912;2022-11-20T15:36:18;6.27;;;3.23;;
15256;SDS011;7731;50.720;6.912;2022-11-20T15:38:56;5.57;;;4.30;;
15256;SDS011;7731;50.720;6.912;2022-11-20T15:41:27;3.10;;;2.03;;
15256;SDS011;7731;50.720;6.912;2022-11-20T15:44:00;3.63;;;1.70;;
15256;SDS011;7731;50.720;6.912;2022-11-20T15:46:35;3.30;;;1.80;;
15256;SDS011;7731;50.720;6.912;2022-11-20T15:49:13;2.77;;;1.93;;
15256;SDS011;7731;50.720;6.912;2022-11-20T15:51:48;1.90;;;1.80;;